TAF and METAR

METAR for El Alto International Airport

SLLP 180000Z 06008KT 9999 FEW015 FEW017CB SCT20009/01 Q1034
Report created 18. nov 01:00
wind 8 knots from ENE (060°) visibility > 10km some clouds (~25% cover) at 1500 feet some clouds (~25% cover) at 1700 feet of type cumulonimbus scattered clouds (~50% cover) at 20000 feet Temperature 9° with dewpoint at 1° (Humidity 57.25%) Pressure 1034 hPa

TAF for El Alto International Airport

TAF SLLP 172200Z 1800/1824 07005KT 9999 FEW012 SCT070 TX17/1820Z TN02 /1810Z BECMG 1803/1805 3000E VCFG PROB30 TEMPO 1807/1809 RA BECMG 1812/1814 9999 NSW TEMPO 1818/1822 06010G20KT FEW023CB
Report created 17. nov 23:00

between 18. nov 01:00 - 18. nov 01:00

wind 5 knots from ENE (070°) visibility > 10km some clouds (~25% cover) at 1200 feet scattered clouds (~50% cover) at 7000 feet Max temperature 17° expected today at around 21 o'clock Min temperature 02° expected today at around 11 o'clock

becoming between 18. nov 04:00 - 18. nov 06:00

visibility E 3000 meters fog in the vicinity

probably (~30%) temporarily between 18. nov 08:00 - 18. nov 10:00

rain

becoming between 18. nov 13:00 - 18. nov 15:00

visibility > 10km

temporarily between 18. nov 19:00 - 18. nov 23:00

wind 10 knots from ENE (060°) with gusts up to 20 knots some clouds (~25% cover) at 2300 feet of type cumulonimbus